Latest Weather Observations for Delamere

IDD60801

Issued at 7:31 pm CST Tuesday 5 May 2015 (issued every 30 minutes, with the page automatically refreshed every 10 minutes)

About weather observations | Map of weather stations | Latest weather observations for NT | Other Formats
Station Details ID: 014949 Name: DELAMERE WEAPONS RANGE Lat: -15.74 Lon: 131.92 Height: 221.0 m
Data from the previous 72 hours. | See also: Recent months at Delamere
Date/Time
CST
Temp
°C
App
Temp
°C
Dew
Point
Rel
Hum
%
Delta-T
°C
Wind Press
QNH
hPa
Press
MSL
hPa
Rain
since 9 am
mm
Dir
 
Spd
km/h
Gust
km/h
Spd
kts
Gust
kts
05/07:30pm 26.8 26.6 9.2 33 9.8 CALM 0 0 0 0 1010.2 - 0.0
05/07:00pm 27.9 27.6 8.7 30 10.6 CALM 0 0 0 0 1009.8 - 0.0
05/06:30pm 30.2 29.0 8.0 25 12.3 NE 4 6 2 3 1009.4 - 0.0
05/06:00pm 32.1 29.9 7.7 22 13.6 ENE 9 11 5 6 1009.1 1008.1 0.0
05/05:30pm 33.6 30.6 6.0 18 15.0 ENE 11 17 6 9 1009.0 - 0.0
05/05:00pm 34.1 31.2 6.4 18 15.2 ENE 11 17 6 9 1008.8 - 0.0
05/04:30pm 34.6 31.0 5.1 16 15.9 E 13 20 7 11 1008.8 - 0.0
05/04:00pm 34.4 31.0 5.8 17 15.6 ESE 13 17 7 9 1008.7 - 0.0
05/03:30pm 34.3 30.9 5.8 17 15.5 ESE 13 20 7 11 1009.0 - 0.0
05/03:00pm 34.0 30.7 6.3 18 15.2 SE 13 19 7 10 1009.4 1008.4 0.0
05/02:30pm 34.6 31.8 5.1 16 15.9 SE 9 19 5 10 1009.7 - 0.0
05/02:00pm 34.2 30.0 5.7 17 15.5 ESE 17 30 9 16 1010.2 - 0.0
05/01:30pm 33.8 29.9 5.4 17 15.3 E 15 24 8 13 1010.5 - 0.0
05/01:00pm 33.3 28.6 5.0 17 15.1 E 19 24 10 13 1011.1 - 0.0
05/12:30pm 33.4 29.6 5.9 18 14.9 ESE 15 22 8 12 1011.6 - 0.0
05/12:00pm 32.8 28.9 5.4 18 14.7 E 15 24 8 13 1012.1 1011.0 0.0
05/11:30am 32.3 28.3 6.5 20 14.1 ESE 17 26 9 14 1012.6 - 0.0
05/11:00am 31.5 27.7 5.8 20 13.8 ESE 15 24 8 13 1012.9 - 0.0
05/10:30am 31.2 29.2 7.0 22 13.2 SSE 7 15 4 8 1013.1 - 0.0
05/10:00am 29.1 26.6 6.5 24 12.1 S 9 11 5 6 1013.1 - 0.0
05/09:30am 27.6 25.3 7.5 28 10.9 S 9 11 5 6 1013.1 - 0.0
05/09:00am 26.1 23.9 7.7 31 9.9 SSE 9 11 5 6 1013.2 1012.2 0.0
05/08:30am 23.3 23.4 10.0 43 7.3 CALM 0 0 0 0 1013.1 - 0.0
05/08:00am 21.0 21.1 10.2 50 5.9 CALM 0 0 0 0 1012.8 - 0.0
05/07:30am 17.5 17.6 10.1 62 4.0 CALM 0 0 0 0 1012.5 - 0.0
05/07:00am 15.5 15.5 9.8 69 3.0 CALM 0 0 0 0 1012.2 - 0.0
05/06:30am 15.7 15.7 9.8 68 3.1 CALM 0 0 0 0 1011.9 - 0.0
05/06:00am 15.6 15.6 9.7 68 3.1 CALM 0 0 0 0 1011.6 1010.5 0.0
05/05:30am 15.8 15.8 9.7 67 3.2 CALM 0 0 0 0 1011.3 - 0.0
05/05:00am 16.1 16.2 10.0 67 3.2 CALM 0 0 0 0 1011.3 - 0.0
05/04:30am 16.5 16.8 10.8 69 3.1 CALM 0 0 0 0 1011.4 - 0.0
05/04:00am 16.9 17.0 10.1 64 3.6 CALM 0 0 0 0 1011.6 - 0.0
05/03:30am 16.7 16.8 10.3 66 3.4 CALM 0 0 0 0 1011.7 - 0.0
05/03:00am 16.9 17.1 10.7 67 3.4 CALM 0 0 0 0 1011.7 1010.6 0.0
05/02:30am 17.0 17.0 9.7 62 3.9 CALM 0 0 0 0 1011.9 - 0.0
05/02:00am 17.7 17.5 9.1 57 4.5 CALM 0 0 0 0 1011.9 - 0.0
05/01:30am 18.4 18.2 9.2 55 4.9 CALM 0 0 0 0 1012.0 - 0.0
05/01:00am 18.7 18.8 10.0 57 4.7 CALM 0 0 0 0 1012.1 - 0.0
05/12:30am 18.9 18.9 9.7 55 4.9 CALM 0 0 0 0 1012.4 - 0.0
05/12:00am 19.0 19.0 9.8 55 4.9 CALM 0 0 0 0 1012.6 1011.5 0.0
 
Date/Time
CST
Temp
°C
App
Temp
°C
Dew
Point
Rel
Hum
%
Delta-T
°C
Wind Press
QNH
hPa
Press
MSL
hPa
Rain
since 9 am
mm
Dir
 
Spd
km/h
Gust
km/h
Spd
kts
Gust
kts
04/11:30pm 19.2 19.0 9.1 52 5.4 CALM 0 0 0 0 1012.8 - 0.0
04/11:00pm 19.8 19.5 8.8 49 5.8 CALM 0 0 0 0 1012.9 - 0.0
04/10:30pm 21.0 20.6 8.3 44 6.7 CALM 0 0 0 0 1012.9 - 0.0
04/10:00pm 21.8 20.6 8.0 41 7.3 N 4 6 2 3 1012.9 - 0.0
04/09:30pm 23.1 21.8 7.6 37 8.2 N 4 6 2 3 1012.9 - 0.0
04/09:00pm 23.7 22.1 7.8 36 8.5 NNE 6 7 3 4 1012.6 1011.5 0.0
04/08:30pm 23.9 22.2 8.3 37 8.4 NNE 7 9 4 5 1012.4 - 0.0
04/08:00pm 24.4 23.9 8.0 35 8.8 CALM 0 0 0 0 1012.1 - 0.0
04/07:30pm 25.1 24.7 8.1 34 9.2 CALM 0 0 0 0 1011.8 - 0.0
04/07:00pm 26.4 25.8 7.4 30 10.2 CALM 0 0 0 0 1011.5 - 0.0
04/06:30pm 28.6 27.2 7.2 26 11.6 E 4 6 2 3 1011.2 - 0.0
04/06:00pm 30.7 28.6 6.6 22 13.1 E 7 9 4 5 1010.9 1009.8 0.0
04/05:30pm 31.9 29.0 4.6 18 14.4 ESE 9 13 5 7 1010.6 - 0.0
04/05:00pm 32.6 29.9 3.5 16 15.1 E 7 17 4 9 1010.5 - 0.0
04/04:30pm 32.6 29.1 3.5 16 15.1 SE 11 15 6 8 1010.5 - 0.0
04/04:00pm 32.9 29.8 3.8 16 15.2 ESE 9 17 5 9 1010.4 - 0.0
04/03:30pm 32.8 30.1 3.7 16 15.2 ESE 7 15 4 8 1010.6 - 0.0
04/03:00pm 32.7 27.7 3.6 16 15.2 NE 19 22 10 12 1010.8 1009.7 0.0
04/02:30pm 32.9 30.0 4.6 17 15.0 ESE 9 22 5 12 1011.3 - 0.0
04/02:00pm 32.2 28.1 4.1 17 14.7 ENE 15 24 8 13 1011.8 - 0.0
04/01:30pm 31.6 28.4 5.2 19 14.0 E 11 22 6 12 1012.3 - 0.0
04/01:00pm 31.4 27.3 4.2 18 14.2 E 15 20 8 11 1012.8 - 0.0
04/12:30pm 30.8 26.5 5.3 20 13.5 E 17 22 9 12 1013.1 - 0.0
04/12:00pm 30.6 26.9 6.5 22 13.0 ENE 15 24 8 13 1013.6 1012.6 0.0
04/11:30am 29.7 24.9 5.7 22 12.7 E 20 30 11 16 1014.2 - 0.0
04/10:30am 28.3 23.7 6.4 25 11.7 E 20 28 11 15 1014.7 - 0.0
04/10:00am 27.3 22.5 5.6 25 11.3 E 20 28 11 15 1014.9 - 0.0
04/09:30am 26.3 21.8 6.3 28 10.5 E 19 26 10 14 1014.8 - 0.0
04/09:00am 24.6 20.3 5.4 29 9.8 E 17 26 9 14 1014.7 1013.6 0.0
04/08:30am 22.5 18.8 4.5 31 8.9 E 13 17 7 9 1014.5 - 0.0
04/08:00am 20.5 16.7 4.1 34 8.0 ESE 13 19 7 10 1014.1 - 0.0
04/07:30am 18.1 14.7 3.9 39 6.8 ESE 11 13 6 7 1013.7 - 0.0
04/07:00am 15.3 12.9 5.2 51 4.8 ESE 7 9 4 5 1013.5 - 0.0
04/06:30am 14.0 11.9 5.6 57 4.0 SE 6 7 3 4 1013.2 - 0.0
04/06:00am 14.4 12.3 6.0 57 4.1 SE 6 7 3 4 1012.9 1011.9 0.0
04/05:30am 15.1 13.0 5.9 54 4.5 ESE 6 7 3 4 1012.7 - 0.0
04/05:00am 15.3 13.1 5.5 52 4.7 ESE 6 7 3 4 1012.5 - 0.0
04/04:30am 17.2 14.6 4.2 42 6.2 ESE 7 9 4 5 1012.4 - 0.0
04/04:00am 15.3 13.4 7.6 60 3.9 ESE 7 9 4 5 1012.4 - 0.0
04/03:30am 15.1 13.2 6.9 58 4.1 SE 6 7 3 4 1012.6 - 0.0
04/03:00am 15.1 13.4 7.4 60 3.9 SE 6 7 3 4 1012.6 1011.5 0.0
04/02:30am 15.0 14.3 7.1 59 3.9 CALM 0 0 0 0 1012.5 - 0.0
04/02:00am 15.2 14.4 6.5 56 4.3 CALM 0 0 0 0 1012.6 - 0.0
04/01:30am 15.5 14.8 6.8 56 4.3 CALM 0 0 0 0 1012.8 - 0.0
04/01:00am 15.9 15.1 6.3 53 4.7 CALM 0 0 0 0 1013.0 - 0.0
04/12:30am 16.2 15.6 7.2 55 4.5 CALM 0 0 0 0 1013.2 - 0.0
04/12:00am 16.6 15.8 6.4 51 5.1 CALM 0 0 0 0 1013.2 1012.2 0.0
 
Date/Time
CST
Temp
°C
App
Temp
°C
Dew
Point
Rel
Hum
%
Delta-T
°C
Wind Press
QNH
hPa
Press
MSL
hPa
Rain
since 9 am
mm
Dir
 
Spd
km/h
Gust
km/h
Spd
kts
Gust
kts
03/11:30pm 17.7 17.0 6.9 49 5.4 CALM 0 0 0 0 1013.3 - 0.0
03/11:00pm 17.3 16.5 6.5 49 5.4 CALM 0 0 0 0 1013.3 - 0.0
03/10:30pm 17.7 16.9 6.3 47 5.7 CALM 0 0 0 0 1013.4 - 0.0
03/10:00pm 18.3 17.4 6.2 45 6.0 CALM 0 0 0 0 1013.4 - 0.0
03/09:30pm 19.2 18.2 5.6 41 6.7 CALM 0 0 0 0 1013.4 - 0.0
03/09:00pm 20.8 19.7 5.2 36 7.8 CALM 0 0 0 0 1013.4 1012.4 0.0
03/08:30pm 21.5 20.4 5.0 34 8.2 CALM 0 0 0 0 1013.3 - 0.0
03/08:00pm 22.3 21.2 5.3 33 8.6 CALM 0 0 0 0 1013.1 - 0.0
03/07:30pm 23.2 22.0 4.7 30 9.3 CALM 0 0 0 0 1012.7 - 0.0
03/07:00pm 24.3 23.1 4.6 28 9.9 CALM 0 0 0 0 1012.4 - 0.0
03/06:30pm 26.2 24.0 3.4 23 11.4 ESE 4 6 2 3 1012.4 - 0.0
03/06:00pm 29.0 26.2 3.1 19 13.1 ESE 7 9 4 5 1012.3 1011.2 0.0
03/05:30pm 30.5 26.6 1.0 15 14.5 SE 11 17 6 9 1012.1 - 0.0
03/05:00pm 31.3 27.3 0.6 14 15.1 ESE 11 15 6 8 1011.9 - 0.0
03/04:30pm 31.6 27.3 0.9 14 15.2 SE 13 19 7 10 1011.8 - 0.0
03/04:00pm 32.0 27.6 0.2 13 15.6 ESE 13 22 7 12 1011.7 - 0.0
03/03:30pm 31.9 27.5 0.1 13 15.6 E 13 20 7 11 1011.8 - 0.0
03/03:00pm 31.5 27.2 -1.3 12 15.6 ESE 11 20 6 11 1012.0 1010.9 0.0
03/02:30pm 31.6 27.1 -0.1 13 15.4 E 13 22 7 12 1012.2 - 0.0
03/02:00pm 31.1 26.6 -0.5 13 15.2 NNE 13 20 7 11 1012.6 - 0.0
03/01:30pm 30.6 26.0 -0.9 13 15.0 E 13 20 7 11 1013.1 - 0.0
03/01:00pm 30.5 25.4 -2.1 12 15.2 E 15 24 8 13 1013.6 - 0.0
03/12:30pm 30.4 24.7 -1.1 13 15.0 E 19 28 10 15 1014.0 - 0.0
03/12:00pm 30.1 25.1 1.5 16 14.2 E 17 24 9 13 1014.5 1013.4 0.0
03/11:30am 29.1 23.4 0.7 16 13.8 ENE 20 30 11 16 1015.0 - 0.0
03/11:00am 28.6 22.9 0.3 16 13.6 E 20 28 11 15 1015.4 - 0.0
03/10:30am 27.8 22.1 0.5 17 13.1 E 20 26 11 14 1015.7 - 0.0
03/10:00am 26.7 20.6 0.4 18 12.5 E 22 33 12 18 1015.9 - 0.0
03/09:30am 25.9 19.7 -0.2 18 12.2 E 22 32 12 17 1015.9 - 0.0
03/09:00am 24.3 19.8 1.9 23 10.7 E 15 20 8 11 1015.9 1014.8 0.0
03/08:30am 22.1 17.8 1.2 25 9.7 E 13 19 7 10 1015.7 - 0.0
03/08:00am 20.3 16.0 1.2 28 8.8 ESE 13 19 7 10 1015.5 - 0.0
03/07:30am 18.1 14.1 0.7 31 7.8 ESE 11 15 6 8 1015.3 - 0.0
03/07:00am 16.3 12.7 0.4 34 6.9 ESE 9 13 5 7 1015.0 - 0.0
03/06:30am 16.1 12.5 0.3 34 6.9 ESE 9 15 5 8 1014.7 - 0.0
03/06:00am 16.4 12.7 0.1 33 7.1 SE 9 13 5 7 1014.4 1013.3 0.0
03/05:30am 16.0 12.5 1.0 36 6.6 SE 9 11 5 6 1014.1 - 0.0
03/05:00am 15.4 11.9 1.5 39 6.2 E 9 11 5 6 1013.9 - 0.0
03/04:30am 16.2 12.7 1.5 37 6.6 ESE 9 11 5 6 1013.7 - 0.0
03/04:00am 15.4 12.4 1.9 40 6.0 E 7 11 4 6 1013.6 - 0.0
03/03:30am 15.4 12.7 3.9 46 5.4 SE 7 9 4 5 1013.4 - 0.0
03/03:00am 15.4 13.0 4.5 48 5.1 SE 6 6 3 3 1013.6 1012.6 0.0
03/02:30am 16.5 13.8 2.5 39 6.4 ESE 6 7 3 4 1013.7 - 0.0
03/02:00am 17.6 14.7 2.8 37 6.9 ESE 7 9 4 5 1013.8 - 0.0
03/01:30am 19.5 16.5 1.9 31 8.1 ESE 7 9 4 5 1014.0 - 0.0
03/01:00am 20.0 16.6 1.9 30 8.4 SSE 9 11 5 6 1014.1 - 0.0
03/12:30am 19.1 16.0 3.7 36 7.4 SSE 9 13 5 7 1014.1 - 0.0
03/12:00am 19.3 16.6 5.4 40 6.9 S 9 11 5 6 1014.4 1013.3 0.0
 
Date/Time
CST
Temp
°C
App
Temp
°C
Dew
Point
Rel
Hum
%
Delta-T
°C
Wind Press
QNH
hPa
Press
MSL
hPa
Rain
since 9 am
mm
Dir
 
Spd
km/h
Gust
km/h
Spd
kts
Gust
kts
02/11:30pm 18.2 15.7 6.4 46 5.9 SSE 9 9 5 5 1014.5 - 0.0
02/11:00pm 17.8 15.3 6.7 48 5.6 S 9 11 5 6 1014.4 - 0.0
02/10:30pm 17.2 15.2 7.3 52 5.0 S 7 9 4 5 1014.1 - 0.0
02/10:00pm 19.9 18.8 5.2 38 7.3 CALM 0 0 0 0 1013.8 - 0.0
02/09:30pm 20.4 18.2 6.0 39 7.3 NNE 7 9 4 5 1013.8 - 0.0
02/09:00pm 21.2 19.1 5.9 37 7.7 NNE 6 7 3 4 1013.7 1012.7 0.0
02/08:30pm 21.8 19.5 5.7 35 8.1 NNE 7 7 4 4 1013.4 - 0.0
02/08:00pm 22.2 20.1 5.6 34 8.4 NE 6 7 3 4 1013.1 - 0.0

Other Formats:

Comma delimited format used in spreadsheet applications
http://www.bom.gov.au/fwo/IDD60801/IDD60801.94225.axf

JavaScript Object Notation format (JSON) in row-major order
http://www.bom.gov.au/fwo/IDD60801/IDD60801.94225.json